sensor_id;sensor_type;location;lat;lon;timestamp;P1;durP1;ratioP1;P2;durP2;ratioP2
59006;SDS011;44792;52.760;6.726;2023-02-28T00:00:25;7.68;;;2.97;;
59006;SDS011;44792;52.760;6.726;2023-02-28T00:02:51;7.65;;;3.03;;
59006;SDS011;44792;52.760;6.726;2023-02-28T00:05:18;8.75;;;3.80;;
59006;SDS011;44792;52.760;6.726;2023-02-28T00:07:46;8.43;;;2.65;;
59006;SDS011;44792;52.760;6.726;2023-02-28T00:10:13;6.20;;;3.35;;
59006;SDS011;44792;52.760;6.726;2023-02-28T00:12:44;6.90;;;4.03;;
59006;SDS011;44792;52.760;6.726;2023-02-28T00:15:10;9.10;;;3.53;;
59006;SDS011;44792;52.760;6.726;2023-02-28T00:17:36;8.32;;;3.85;;
59006;SDS011;44792;52.760;6.726;2023-02-28T00:20:03;10.25;;;4.45;;
59006;SDS011;44792;52.760;6.726;2023-02-28T00:22:32;11.93;;;3.65;;
59006;SDS011;44792;52.760;6.726;2023-02-28T00:24:58;7.63;;;3.33;;
59006;SDS011;44792;52.760;6.726;2023-02-28T00:27:23;11.75;;;3.75;;
59006;SDS011;44792;52.760;6.726;2023-02-28T00:29:49;11.02;;;4.18;;
59006;SDS011;44792;52.760;6.726;2023-02-28T00:32:14;6.00;;;3.70;;
59006;SDS011;44792;52.760;6.726;2023-02-28T00:34:40;4.90;;;3.55;;
59006;SDS011;44792;52.760;6.726;2023-02-28T00:37:06;10.00;;;3.67;;
59006;SDS011;44792;52.760;6.726;2023-02-28T00:39:35;10.35;;;4.25;;
59006;SDS011;44792;52.760;6.726;2023-02-28T00:42:02;13.50;;;4.03;;
59006;SDS011;44792;52.760;6.726;2023-02-28T00:44:28;7.22;;;4.40;;
59006;SDS011;44792;52.760;6.726;2023-02-28T00:46:54;10.80;;;4.05;;
59006;SDS011;44792;52.760;6.726;2023-02-28T00:49:20;6.43;;;3.78;;
59006;SDS011;44792;52.760;6.726;2023-02-28T00:51:46;10.85;;;3.97;;
59006;SDS011;44792;52.760;6.726;2023-02-28T00:54:11;11.55;;;4.43;;
59006;SDS011;44792;52.760;6.726;2023-02-28T00:56:37;4.90;;;3.47;;
59006;SDS011;44792;52.760;6.726;2023-02-28T00:59:03;9.40;;;3.20;;
59006;SDS011;44792;52.760;6.726;2023-02-28T01:01:28;5.25;;;3.80;;
59006;SDS011;44792;52.760;6.726;2023-02-28T01:03:54;6.55;;;3.58;;
59006;SDS011;44792;52.760;6.726;2023-02-28T01:06:19;7.35;;;3.80;;
59006;SDS011;44792;52.760;6.726;2023-02-28T01:08:45;7.93;;;3.47;;
59006;SDS011;44792;52.760;6.726;2023-02-28T01:11:11;6.88;;;3.85;;
59006;SDS011;44792;52.760;6.726;2023-02-28T01:13:40;7.95;;;4.15;;
59006;SDS011;44792;52.760;6.726;2023-02-28T01:16:06;10.10;;;4.30;;
59006;SDS011;44792;52.760;6.726;2023-02-28T01:18:32;8.55;;;3.88;;
59006;SDS011;44792;52.760;6.726;2023-02-28T01:20:57;8.43;;;3.95;;
59006;SDS011;44792;52.760;6.726;2023-02-28T01:23:23;7.07;;;3.78;;
59006;SDS011;44792;52.760;6.726;2023-02-28T01:25:49;5.88;;;3.97;;
59006;SDS011;44792;52.760;6.726;2023-02-28T01:28:16;6.28;;;3.97;;
59006;SDS011;44792;52.760;6.726;2023-02-28T01:30:41;7.15;;;3.58;;
59006;SDS011;44792;52.760;6.726;2023-02-28T01:33:07;7.25;;;3.53;;
59006;SDS011;44792;52.760;6.726;2023-02-28T01:35:33;7.05;;;4.32;;
59006;SDS011;44792;52.760;6.726;2023-02-28T01:37:59;6.10;;;3.50;;
59006;SDS011;44792;52.760;6.726;2023-02-28T01:40:25;8.95;;;3.90;;
59006;SDS011;44792;52.760;6.726;2023-02-28T01:42:51;11.43;;;4.05;;
59006;SDS011;44792;52.760;6.726;2023-02-28T01:47:54;9.23;;;4.18;;
59006;SDS011;44792;52.760;6.726;2023-02-28T01:50:24;7.80;;;4.15;;
59006;SDS011;44792;52.760;6.726;2023-02-28T01:52:54;12.90;;;4.15;;
59006;SDS011;44792;52.760;6.726;2023-02-28T01:55:25;7.83;;;4.43;;
59006;SDS011;44792;52.760;6.726;2023-02-28T01:57:54;9.73;;;4.25;;
59006;SDS011;44792;52.760;6.726;2023-02-28T02:00:23;6.80;;;4.13;;
59006;SDS011;44792;52.760;6.726;2023-02-28T02:02:53;7.28;;;4.28;;
59006;SDS011;44792;52.760;6.726;2023-02-28T02:05:22;13.73;;;4.38;;
59006;SDS011;44792;52.760;6.726;2023-02-28T02:07:50;6.05;;;4.32;;
59006;SDS011;44792;52.760;6.726;2023-02-28T02:10:22;6.88;;;4.05;;
59006;SDS011;44792;52.760;6.726;2023-02-28T02:18:57;5.45;;;3.97;;
59006;SDS011;44792;52.760;6.726;2023-02-28T02:38:32;12.07;;;4.68;;
59006;SDS011;44792;52.760;6.726;2023-02-28T02:43:52;9.52;;;4.47;;
59006;SDS011;44792;52.760;6.726;2023-02-28T02:46:30;9.68;;;4.18;;
59006;SDS011;44792;52.760;6.726;2023-02-28T02:49:03;9.10;;;4.88;;
59006;SDS011;44792;52.760;6.726;2023-02-28T02:51:32;8.02;;;4.82;;
59006;SDS011;44792;52.760;6.726;2023-02-28T02:54:02;7.18;;;4.60;;
59006;SDS011;44792;52.760;6.726;2023-02-28T02:56:41;7.32;;;4.95;;
59006;SDS011;44792;52.760;6.726;2023-02-28T02:59:10;7.60;;;4.75;;
59006;SDS011;44792;52.760;6.726;2023-02-28T03:01:38;9.43;;;5.43;;
59006;SDS011;44792;52.760;6.726;2023-02-28T03:04:08;10.90;;;4.85;;
59006;SDS011;44792;52.760;6.726;2023-02-28T03:06:36;11.25;;;5.28;;
59006;SDS011;44792;52.760;6.726;2023-02-28T03:09:02;10.82;;;4.88;;
59006;SDS011;44792;52.760;6.726;2023-02-28T03:11:29;10.00;;;5.43;;
59006;SDS011;44792;52.760;6.726;2023-02-28T03:30:03;10.55;;;5.75;;
59006;SDS011;44792;52.760;6.726;2023-02-28T03:32:54;11.88;;;5.93;;
59006;SDS011;44792;52.760;6.726;2023-02-28T03:35:31;10.68;;;6.43;;
59006;SDS011;44792;52.760;6.726;2023-02-28T03:38:01;10.95;;;5.78;;
59006;SDS011;44792;52.760;6.726;2023-02-28T03:40:33;14.05;;;5.72;;
59006;SDS011;44792;52.760;6.726;2023-02-28T03:43:03;13.50;;;5.38;;
59006;SDS011;44792;52.760;6.726;2023-02-28T03:45:35;11.98;;;6.15;;
59006;SDS011;44792;52.760;6.726;2023-02-28T03:48:04;11.77;;;5.93;;
59006;SDS011;44792;52.760;6.726;2023-02-28T03:50:47;11.77;;;6.03;;
59006;SDS011;44792;52.760;6.726;2023-02-28T03:53:32;14.27;;;6.55;;
59006;SDS011;44792;52.760;6.726;2023-02-28T03:56:21;10.30;;;6.35;;
59006;SDS011;44792;52.760;6.726;2023-02-28T03:58:58;10.50;;;6.38;;
59006;SDS011;44792;52.760;6.726;2023-02-28T04:01:38;14.20;;;6.32;;
59006;SDS011;44792;52.760;6.726;2023-02-28T04:04:06;11.45;;;6.78;;
59006;SDS011;44792;52.760;6.726;2023-02-28T04:06:33;11.80;;;7.13;;
59006;SDS011;44792;52.760;6.726;2023-02-28T04:09:00;10.82;;;6.40;;
59006;SDS011;44792;52.760;6.726;2023-02-28T04:14:02;10.18;;;6.38;;
59006;SDS011;44792;52.760;6.726;2023-02-28T04:16:30;11.82;;;6.63;;
59006;SDS011;44792;52.760;6.726;2023-02-28T04:19:00;11.80;;;6.72;;
59006;SDS011;44792;52.760;6.726;2023-02-28T04:21:28;13.13;;;7.03;;
59006;SDS011;44792;52.760;6.726;2023-02-28T04:23:55;10.13;;;6.47;;
59006;SDS011;44792;52.760;6.726;2023-02-28T04:26:20;13.48;;;6.65;;
59006;SDS011;44792;52.760;6.726;2023-02-28T04:28:46;11.95;;;6.75;;
59006;SDS011;44792;52.760;6.726;2023-02-28T04:31:12;17.63;;;7.35;;
59006;SDS011;44792;52.760;6.726;2023-02-28T04:33:37;11.35;;;6.88;;
59006;SDS011;44792;52.760;6.726;2023-02-28T04:36:04;12.55;;;7.00;;
59006;SDS011;44792;52.760;6.726;2023-02-28T04:38:32;15.13;;;6.97;;
59006;SDS011;44792;52.760;6.726;2023-02-28T04:40:59;13.52;;;6.82;;
59006;SDS011;44792;52.760;6.726;2023-02-28T04:43:26;10.45;;;6.63;;
59006;SDS011;44792;52.760;6.726;2023-02-28T04:45:52;12.98;;;6.68;;
59006;SDS011;44792;52.760;6.726;2023-02-28T04:48:21;10.75;;;6.78;;
59006;SDS011;44792;52.760;6.726;2023-02-28T04:50:48;11.35;;;6.28;;
59006;SDS011;44792;52.760;6.726;2023-02-28T04:53:13;13.02;;;6.47;;
59006;SDS011;44792;52.760;6.726;2023-02-28T04:55:39;15.52;;;7.45;;
59006;SDS011;44792;52.760;6.726;2023-02-28T04:58:05;11.82;;;6.30;;
59006;SDS011;44792;52.760;6.726;2023-02-28T05:00:30;10.43;;;6.13;;
59006;SDS011;44792;52.760;6.726;2023-02-28T05:02:56;14.00;;;6.60;;
59006;SDS011;44792;52.760;6.726;2023-02-28T05:05:21;11.43;;;6.80;;
59006;SDS011;44792;52.760;6.726;2023-02-28T05:07:47;10.77;;;6.25;;
59006;SDS011;44792;52.760;6.726;2023-02-28T05:10:12;13.93;;;6.25;;
59006;SDS011;44792;52.760;6.726;2023-02-28T05:12:38;8.68;;;5.78;;
59006;SDS011;44792;52.760;6.726;2023-02-28T05:15:04;9.60;;;6.20;;
59006;SDS011;44792;52.760;6.726;2023-02-28T05:17:30;12.65;;;6.55;;
59006;SDS011;44792;52.760;6.726;2023-02-28T05:19:56;12.73;;;5.93;;
59006;SDS011;44792;52.760;6.726;2023-02-28T05:22:22;14.85;;;6.18;;
59006;SDS011;44792;52.760;6.726;2023-02-28T05:24:47;10.75;;;6.50;;
59006;SDS011;44792;52.760;6.726;2023-02-28T05:27:13;11.18;;;6.53;;
59006;SDS011;44792;52.760;6.726;2023-02-28T05:29:38;14.13;;;6.45;;
59006;SDS011;44792;52.760;6.726;2023-02-28T05:32:10;12.27;;;5.90;;
59006;SDS011;44792;52.760;6.726;2023-02-28T05:34:39;8.13;;;5.95;;
59006;SDS011;44792;52.760;6.726;2023-02-28T05:37:07;7.55;;;5.70;;
59006;SDS011;44792;52.760;6.726;2023-02-28T05:39:36;9.93;;;5.82;;
59006;SDS011;44792;52.760;6.726;2023-02-28T05:42:02;9.55;;;5.90;;
59006;SDS011;44792;52.760;6.726;2023-02-28T05:44:28;7.53;;;5.40;;
59006;SDS011;44792;52.760;6.726;2023-02-28T05:46:54;9.05;;;6.05;;
59006;SDS011;44792;52.760;6.726;2023-02-28T05:49:19;12.80;;;6.15;;
59006;SDS011;44792;52.760;6.726;2023-02-28T05:51:45;11.35;;;6.40;;
59006;SDS011;44792;52.760;6.726;2023-02-28T05:54:10;8.82;;;5.45;;
59006;SDS011;44792;52.760;6.726;2023-02-28T05:56:36;9.75;;;5.72;;
59006;SDS011;44792;52.760;6.726;2023-02-28T05:59:04;9.52;;;5.85;;
59006;SDS011;44792;52.760;6.726;2023-02-28T06:01:32;10.73;;;5.70;;
59006;SDS011;44792;52.760;6.726;2023-02-28T06:04:00;7.93;;;5.63;;
59006;SDS011;44792;52.760;6.726;2023-02-28T06:06:27;10.27;;;6.15;;
59006;SDS011;44792;52.760;6.726;2023-02-28T06:08:54;9.07;;;5.80;;
59006;SDS011;44792;52.760;6.726;2023-02-28T06:11:20;9.40;;;5.72;;
59006;SDS011;44792;52.760;6.726;2023-02-28T06:13:46;10.45;;;6.45;;
59006;SDS011;44792;52.760;6.726;2023-02-28T06:16:11;12.05;;;6.30;;
59006;SDS011;44792;52.760;6.726;2023-02-28T06:18:37;11.10;;;6.75;;
59006;SDS011;44792;52.760;6.726;2023-02-28T06:21:03;12.88;;;6.95;;
59006;SDS011;44792;52.760;6.726;2023-02-28T06:23:29;11.55;;;6.85;;
59006;SDS011;44792;52.760;6.726;2023-02-28T06:25:55;11.35;;;7.03;;
59006;SDS011;44792;52.760;6.726;2023-02-28T06:28:23;13.32;;;6.50;;
59006;SDS011;44792;52.760;6.726;2023-02-28T06:30:50;10.65;;;6.57;;
59006;SDS011;44792;52.760;6.726;2023-02-28T06:33:15;9.82;;;5.38;;
59006;SDS011;44792;52.760;6.726;2023-02-28T06:35:43;10.35;;;5.93;;
59006;SDS011;44792;52.760;6.726;2023-02-28T06:38:11;11.82;;;6.22;;
59006;SDS011;44792;52.760;6.726;2023-02-28T06:40:36;8.98;;;6.03;;
59006;SDS011;44792;52.760;6.726;2023-02-28T06:43:02;8.75;;;6.15;;
59006;SDS011;44792;52.760;6.726;2023-02-28T06:45:28;15.98;;;6.45;;
59006;SDS011;44792;52.760;6.726;2023-02-28T06:47:54;14.95;;;6.43;;
59006;SDS011;44792;52.760;6.726;2023-02-28T06:50:20;15.38;;;7.38;;
59006;SDS011;44792;52.760;6.726;2023-02-28T06:52:46;10.50;;;6.00;;
59006;SDS011;44792;52.760;6.726;2023-02-28T06:55:12;7.47;;;5.90;;
59006;SDS011;44792;52.760;6.726;2023-02-28T06:57:38;10.50;;;5.85;;
59006;SDS011;44792;52.760;6.726;2023-02-28T07:00:05;9.07;;;7.05;;
59006;SDS011;44792;52.760;6.726;2023-02-28T07:02:35;11.38;;;6.20;;
59006;SDS011;44792;52.760;6.726;2023-02-28T07:05:02;8.82;;;5.72;;
59006;SDS011;44792;52.760;6.726;2023-02-28T07:07:31;12.35;;;7.18;;
59006;SDS011;44792;52.760;6.726;2023-02-28T07:09:57;12.35;;;7.40;;
59006;SDS011;44792;52.760;6.726;2023-02-28T07:12:23;8.77;;;6.30;;
59006;SDS011;44792;52.760;6.726;2023-02-28T07:14:48;12.07;;;7.20;;
59006;SDS011;44792;52.760;6.726;2023-02-28T07:17:14;13.73;;;7.28;;
59006;SDS011;44792;52.760;6.726;2023-02-28T07:19:39;15.05;;;7.82;;
59006;SDS011;44792;52.760;6.726;2023-02-28T07:22:05;12.10;;;7.50;;
59006;SDS011;44792;52.760;6.726;2023-02-28T07:24:31;13.27;;;7.05;;
59006;SDS011;44792;52.760;6.726;2023-02-28T07:26:57;15.13;;;7.45;;
59006;SDS011;44792;52.760;6.726;2023-02-28T07:29:24;12.55;;;6.88;;
59006;SDS011;44792;52.760;6.726;2023-02-28T07:31:50;16.38;;;6.68;;
59006;SDS011;44792;52.760;6.726;2023-02-28T07:34:18;14.85;;;7.35;;
59006;SDS011;44792;52.760;6.726;2023-02-28T07:36:44;13.15;;;7.22;;
59006;SDS011;44792;52.760;6.726;2023-02-28T07:39:09;13.43;;;7.35;;
59006;SDS011;44792;52.760;6.726;2023-02-28T07:41:35;14.32;;;7.03;;
59006;SDS011;44792;52.760;6.726;2023-02-28T07:44:08;13.10;;;6.57;;
59006;SDS011;44792;52.760;6.726;2023-02-28T07:46:36;13.40;;;7.35;;
59006;SDS011;44792;52.760;6.726;2023-02-28T07:49:02;16.95;;;7.28;;
59006;SDS011;44792;52.760;6.726;2023-02-28T07:51:29;10.10;;;6.72;;
59006;SDS011;44792;52.760;6.726;2023-02-28T07:53:55;10.23;;;6.00;;
59006;SDS011;44792;52.760;6.726;2023-02-28T07:56:20;13.40;;;7.43;;
59006;SDS011;44792;52.760;6.726;2023-02-28T07:58:46;10.77;;;6.65;;
59006;SDS011;44792;52.760;6.726;2023-02-28T08:01:11;12.50;;;6.38;;
59006;SDS011;44792;52.760;6.726;2023-02-28T08:03:38;11.95;;;5.88;;
59006;SDS011;44792;52.760;6.726;2023-02-28T08:06:05;13.25;;;7.18;;
59006;SDS011;44792;52.760;6.726;2023-02-28T08:08:31;10.18;;;5.68;;
59006;SDS011;44792;52.760;6.726;2023-02-28T08:11:00;7.75;;;5.20;;
59006;SDS011;44792;52.760;6.726;2023-02-28T08:13:29;11.65;;;5.30;;
59006;SDS011;44792;52.760;6.726;2023-02-28T08:15:55;7.43;;;4.78;;
59006;SDS011;44792;52.760;6.726;2023-02-28T08:18:21;11.27;;;5.50;;
59006;SDS011;44792;52.760;6.726;2023-02-28T08:20:48;7.85;;;5.05;;
59006;SDS011;44792;52.760;6.726;2023-02-28T08:23:13;8.85;;;5.57;;
59006;SDS011;44792;52.760;6.726;2023-02-28T08:25:40;9.35;;;5.72;;
59006;SDS011;44792;52.760;6.726;2023-02-28T08:28:05;11.65;;;5.75;;
59006;SDS011;44792;52.760;6.726;2023-02-28T08:30:31;10.35;;;5.72;;
59006;SDS011;44792;52.760;6.726;2023-02-28T08:32:56;9.15;;;5.82;;
59006;SDS011;44792;52.760;6.726;2023-02-28T08:35:22;9.88;;;5.72;;
59006;SDS011;44792;52.760;6.726;2023-02-28T08:37:48;11.25;;;6.28;;
59006;SDS011;44792;52.760;6.726;2023-02-28T08:40:14;11.70;;;5.50;;
59006;SDS011;44792;52.760;6.726;2023-02-28T08:42:46;11.77;;;5.90;;
59006;SDS011;44792;52.760;6.726;2023-02-28T08:45:12;9.55;;;5.65;;
59006;SDS011;44792;52.760;6.726;2023-02-28T08:47:39;7.15;;;4.80;;
59006;SDS011;44792;52.760;6.726;2023-02-28T08:50:06;10.25;;;5.53;;
59006;SDS011;44792;52.760;6.726;2023-02-28T08:52:32;9.23;;;4.47;;
59006;SDS011;44792;52.760;6.726;2023-02-28T08:54:58;5.68;;;4.57;;
59006;SDS011;44792;52.760;6.726;2023-02-28T08:57:23;7.90;;;4.65;;
59006;SDS011;44792;52.760;6.726;2023-02-28T08:59:51;6.90;;;4.80;;
59006;SDS011;44792;52.760;6.726;2023-02-28T09:02:17;9.95;;;5.60;;
59006;SDS011;44792;52.760;6.726;2023-02-28T09:04:43;8.68;;;5.30;;
59006;SDS011;44792;52.760;6.726;2023-02-28T09:07:10;10.15;;;5.50;;
59006;SDS011;44792;52.760;6.726;2023-02-28T09:09:36;8.80;;;6.05;;
59006;SDS011;44792;52.760;6.726;2023-02-28T09:12:02;8.35;;;5.55;;
59006;SDS011;44792;52.760;6.726;2023-02-28T09:14:28;7.75;;;5.63;;
59006;SDS011;44792;52.760;6.726;2023-02-28T09:16:53;7.30;;;5.53;;
59006;SDS011;44792;52.760;6.726;2023-02-28T09:19:19;6.30;;;5.30;;
59006;SDS011;44792;52.760;6.726;2023-02-28T09:21:45;8.82;;;5.30;;
59006;SDS011;44792;52.760;6.726;2023-02-28T09:24:11;11.13;;;5.13;;
59006;SDS011;44792;52.760;6.726;2023-02-28T09:26:39;8.63;;;5.15;;
59006;SDS011;44792;52.760;6.726;2023-02-28T09:29:05;11.25;;;6.03;;
59006;SDS011;44792;52.760;6.726;2023-02-28T09:31:31;7.82;;;4.90;;
59006;SDS011;44792;52.760;6.726;2023-02-28T09:33:57;7.03;;;4.60;;
59006;SDS011;44792;52.760;6.726;2023-02-28T09:36:24;6.57;;;4.70;;
59006;SDS011;44792;52.760;6.726;2023-02-28T09:38:51;6.13;;;4.80;;
59006;SDS011;44792;52.760;6.726;2023-02-28T09:41:27;5.60;;;3.85;;
59006;SDS011;44792;52.760;6.726;2023-02-28T09:44:04;4.20;;;3.47;;
59006;SDS011;44792;52.760;6.726;2023-02-28T09:46:43;8.10;;;3.58;;
59006;SDS011;44792;52.760;6.726;2023-02-28T09:49:16;7.72;;;3.88;;
59006;SDS011;44792;52.760;6.726;2023-02-28T09:52:01;6.68;;;4.25;;
59006;SDS011;44792;52.760;6.726;2023-02-28T09:54:34;12.13;;;4.30;;
59006;SDS011;44792;52.760;6.726;2023-02-28T09:59:48;4.65;;;3.67;;
59006;SDS011;44792;52.760;6.726;2023-02-28T10:05:24;4.70;;;3.37;;
59006;SDS011;44792;52.760;6.726;2023-02-28T10:10:45;4.47;;;3.28;;
59006;SDS011;44792;52.760;6.726;2023-02-28T10:13:20;4.53;;;2.80;;
59006;SDS011;44792;52.760;6.726;2023-02-28T10:16:14;4.30;;;2.60;;
59006;SDS011;44792;52.760;6.726;2023-02-28T10:18:48;3.10;;;2.67;;
59006;SDS011;44792;52.760;6.726;2023-02-28T10:21:41;6.30;;;3.15;;
59006;SDS011;44792;52.760;6.726;2023-02-28T10:24:30;3.85;;;2.90;;
59006;SDS011;44792;52.760;6.726;2023-02-28T10:27:00;3.72;;;2.33;;
59006;SDS011;44792;52.760;6.726;2023-02-28T10:29:38;5.25;;;2.35;;
59006;SDS011;44792;52.760;6.726;2023-02-28T10:32:08;5.43;;;2.75;;
59006;SDS011;44792;52.760;6.726;2023-02-28T10:34:38;3.45;;;2.35;;
59006;SDS011;44792;52.760;6.726;2023-02-28T10:37:03;3.90;;;2.63;;
59006;SDS011;44792;52.760;6.726;2023-02-28T10:39:36;3.63;;;2.60;;
59006;SDS011;44792;52.760;6.726;2023-02-28T10:42:03;4.18;;;2.47;;
59006;SDS011;44792;52.760;6.726;2023-02-28T10:44:29;4.85;;;2.45;;
59006;SDS011;44792;52.760;6.726;2023-02-28T10:46:55;3.78;;;2.90;;
59006;SDS011;44792;52.760;6.726;2023-02-28T10:49:27;4.78;;;2.40;;
59006;SDS011;44792;52.760;6.726;2023-02-28T10:51:58;4.32;;;2.38;;
59006;SDS011;44792;52.760;6.726;2023-02-28T10:54:29;3.25;;;2.17;;
59006;SDS011;44792;52.760;6.726;2023-02-28T10:59:39;2.63;;;2.28;;
59006;SDS011;44792;52.760;6.726;2023-02-28T11:02:28;2.88;;;2.20;;
59006;SDS011;44792;52.760;6.726;2023-02-28T11:04:54;3.63;;;2.15;;
59006;SDS011;44792;52.760;6.726;2023-02-28T11:07:21;2.60;;;2.40;;
59006;SDS011;44792;52.760;6.726;2023-02-28T11:09:49;3.00;;;2.25;;
59006;SDS011;44792;52.760;6.726;2023-02-28T11:12:21;3.95;;;2.40;;
59006;SDS011;44792;52.760;6.726;2023-02-28T11:14:47;2.60;;;2.40;;
59006;SDS011;44792;52.760;6.726;2023-02-28T11:17:20;5.50;;;2.95;;
59006;SDS011;44792;52.760;6.726;2023-02-28T11:19:51;3.40;;;2.05;;
59006;SDS011;44792;52.760;6.726;2023-02-28T11:22:28;4.07;;;2.58;;
59006;SDS011;44792;52.760;6.726;2023-02-28T11:25:03;7.57;;;2.30;;
59006;SDS011;44792;52.760;6.726;2023-02-28T11:30:02;4.40;;;2.20;;
59006;SDS011;44792;52.760;6.726;2023-02-28T11:32:30;3.25;;;2.35;;
59006;SDS011;44792;52.760;6.726;2023-02-28T11:35:00;2.83;;;2.10;;
59006;SDS011;44792;52.760;6.726;2023-02-28T11:37:27;5.72;;;2.95;;
59006;SDS011;44792;52.760;6.726;2023-02-28T11:39:53;2.17;;;1.95;;
59006;SDS011;44792;52.760;6.726;2023-02-28T11:42:23;5.47;;;2.55;;
59006;SDS011;44792;52.760;6.726;2023-02-28T11:45:22;3.42;;;2.30;;
59006;SDS011;44792;52.760;6.726;2023-02-28T11:48:29;2.20;;;2.08;;
59006;SDS011;44792;52.760;6.726;2023-02-28T11:51:18;3.13;;;2.35;;
59006;SDS011;44792;52.760;6.726;2023-02-28T11:54:11;3.03;;;2.35;;
59006;SDS011;44792;52.760;6.726;2023-02-28T11:56:54;3.97;;;2.28;;
59006;SDS011;44792;52.760;6.726;2023-02-28T11:59:47;2.78;;;2.25;;
59006;SDS011;44792;52.760;6.726;2023-02-28T12:02:28;3.38;;;2.05;;
59006;SDS011;44792;52.760;6.726;2023-02-28T12:05:17;2.30;;;2.10;;
59006;SDS011;44792;52.760;6.726;2023-02-28T12:07:58;4.78;;;2.50;;
59006;SDS011;44792;52.760;6.726;2023-02-28T12:10:57;3.50;;;2.22;;
59006;SDS011;44792;52.760;6.726;2023-02-28T12:13:46;2.03;;;1.75;;
59006;SDS011;44792;52.760;6.726;2023-02-28T12:19:16;3.70;;;2.63;;
59006;SDS011;44792;52.760;6.726;2023-02-28T12:27:19;3.28;;;2.60;;
59006;SDS011;44792;52.760;6.726;2023-02-28T12:29:58;4.40;;;2.30;;
59006;SDS011;44792;52.760;6.726;2023-02-28T12:32:48;5.57;;;2.40;;
59006;SDS011;44792;52.760;6.726;2023-02-28T12:35:40;2.92;;;2.63;;
59006;SDS011;44792;52.760;6.726;2023-02-28T12:38:14;3.33;;;2.58;;
59006;SDS011;44792;52.760;6.726;2023-02-28T12:40:47;7.07;;;2.30;;
59006;SDS011;44792;52.760;6.726;2023-02-28T12:43:20;7.00;;;2.42;;
59006;SDS011;44792;52.760;6.726;2023-02-28T12:45:51;4.40;;;2.55;;
59006;SDS011;44792;52.760;6.726;2023-02-28T12:48:55;3.42;;;2.55;;
59006;SDS011;44792;52.760;6.726;2023-02-28T12:51:24;3.30;;;2.28;;
59006;SDS011;44792;52.760;6.726;2023-02-28T12:54:04;3.72;;;2.95;;
59006;SDS011;44792;52.760;6.726;2023-02-28T12:56:46;2.50;;;2.30;;
59006;SDS011;44792;52.760;6.726;2023-02-28T12:59:23;3.22;;;2.25;;
59006;SDS011;44792;52.760;6.726;2023-02-28T13:11:22;5.45;;;2.67;;
59006;SDS011;44792;52.760;6.726;2023-02-28T13:14:01;4.25;;;2.45;;
59006;SDS011;44792;52.760;6.726;2023-02-28T13:16:28;2.85;;;2.58;;
59006;SDS011;44792;52.760;6.726;2023-02-28T13:19:29;2.60;;;2.40;;
59006;SDS011;44792;52.760;6.726;2023-02-28T13:21:57;2.80;;;2.47;;
59006;SDS011;44792;52.760;6.726;2023-02-28T13:29:39;2.85;;;2.65;;
59006;SDS011;44792;52.760;6.726;2023-02-28T13:39:47;3.70;;;2.80;;
59006;SDS011;44792;52.760;6.726;2023-02-28T13:42:36;3.88;;;2.40;;
59006;SDS011;44792;52.760;6.726;2023-02-28T13:47:44;4.18;;;2.70;;
59006;SDS011;44792;52.760;6.726;2023-02-28T13:50:21;5.38;;;2.47;;
59006;SDS011;44792;52.760;6.726;2023-02-28T13:55:26;3.88;;;2.47;;
59006;SDS011;44792;52.760;6.726;2023-02-28T13:58:05;3.10;;;2.70;;
59006;SDS011;44792;52.760;6.726;2023-02-28T14:06:33;3.15;;;2.78;;
59006;SDS011;44792;52.760;6.726;2023-02-28T14:09:06;2.92;;;2.40;;
59006;SDS011;44792;52.760;6.726;2023-02-28T14:11:50;3.15;;;2.33;;
59006;SDS011;44792;52.760;6.726;2023-02-28T14:17:01;3.25;;;2.60;;
59006;SDS011;44792;52.760;6.726;2023-02-28T14:19:29;2.78;;;2.38;;
59006;SDS011;44792;52.760;6.726;2023-02-28T14:29:36;3.58;;;2.65;;
59006;SDS011;44792;52.760;6.726;2023-02-28T14:37:56;2.50;;;2.23;;
59006;SDS011;44792;52.760;6.726;2023-02-28T14:40:27;3.95;;;2.20;;
59006;SDS011;44792;52.760;6.726;2023-02-28T14:42:56;2.75;;;2.40;;
59006;SDS011;44792;52.760;6.726;2023-02-28T14:45:24;4.47;;;2.50;;
59006;SDS011;44792;52.760;6.726;2023-02-28T14:47:55;2.70;;;2.50;;
59006;SDS011;44792;52.760;6.726;2023-02-28T14:50:24;4.05;;;2.80;;
59006;SDS011;44792;52.760;6.726;2023-02-28T14:52:55;3.42;;;2.15;;
59006;SDS011;44792;52.760;6.726;2023-02-28T14:55:29;2.53;;;2.30;;
59006;SDS011;44792;52.760;6.726;2023-02-28T14:58:01;3.65;;;2.40;;
59006;SDS011;44792;52.760;6.726;2023-02-28T15:00:33;2.50;;;2.10;;
59006;SDS011;44792;52.760;6.726;2023-02-28T15:03:13;2.83;;;2.60;;
59006;SDS011;44792;52.760;6.726;2023-02-28T15:05:51;3.67;;;2.70;;
59006;SDS011;44792;52.760;6.726;2023-02-28T15:08:24;2.97;;;2.47;;
59006;SDS011;44792;52.760;6.726;2023-02-28T15:11:01;3.60;;;2.88;;
59006;SDS011;44792;52.760;6.726;2023-02-28T15:18:48;3.90;;;2.80;;
59006;SDS011;44792;52.760;6.726;2023-02-28T15:21:21;3.03;;;2.70;;
59006;SDS011;44792;52.760;6.726;2023-02-28T15:24:02;5.53;;;2.65;;
59006;SDS011;44792;52.760;6.726;2023-02-28T15:26:38;5.05;;;2.75;;
59006;SDS011;44792;52.760;6.726;2023-02-28T15:29:17;3.88;;;2.67;;
59006;SDS011;44792;52.760;6.726;2023-02-28T15:31:50;3.92;;;2.70;;
59006;SDS011;44792;52.760;6.726;2023-02-28T15:37:06;5.57;;;2.65;;
59006;SDS011;44792;52.760;6.726;2023-02-28T15:39:50;3.95;;;3.00;;
59006;SDS011;44792;52.760;6.726;2023-02-28T15:42:20;3.97;;;2.95;;
59006;SDS011;44792;52.760;6.726;2023-02-28T15:44:47;5.15;;;2.50;;
59006;SDS011;44792;52.760;6.726;2023-02-28T15:47:17;3.42;;;3.03;;
59006;SDS011;44792;52.760;6.726;2023-02-28T15:49:47;6.18;;;3.33;;
59006;SDS011;44792;52.760;6.726;2023-02-28T15:52:15;3.10;;;2.80;;
59006;SDS011;44792;52.760;6.726;2023-02-28T15:54:47;3.10;;;2.78;;
59006;SDS011;44792;52.760;6.726;2023-02-28T15:57:18;3.33;;;2.75;;
59006;SDS011;44792;52.760;6.726;2023-02-28T15:59:50;2.90;;;2.40;;
59006;SDS011;44792;52.760;6.726;2023-02-28T16:02:41;3.53;;;2.53;;
59006;SDS011;44792;52.760;6.726;2023-02-28T16:07:41;3.25;;;2.70;;
59006;SDS011;44792;52.760;6.726;2023-02-28T16:10:09;3.40;;;2.88;;
59006;SDS011;44792;52.760;6.726;2023-02-28T16:12:37;5.20;;;2.50;;
59006;SDS011;44792;52.760;6.726;2023-02-28T16:15:08;6.25;;;2.97;;
59006;SDS011;44792;52.760;6.726;2023-02-28T16:17:45;3.47;;;2.53;;
59006;SDS011;44792;52.760;6.726;2023-02-28T16:20:21;3.50;;;3.20;;
59006;SDS011;44792;52.760;6.726;2023-02-28T16:22:49;3.63;;;2.63;;
59006;SDS011;44792;52.760;6.726;2023-02-28T16:25:16;2.75;;;2.45;;
59006;SDS011;44792;52.760;6.726;2023-02-28T16:27:52;3.38;;;2.80;;
59006;SDS011;44792;52.760;6.726;2023-02-28T16:30:19;4.93;;;3.05;;
59006;SDS011;44792;52.760;6.726;2023-02-28T16:32:50;3.90;;;2.80;;
59006;SDS011;44792;52.760;6.726;2023-02-28T16:35:16;2.97;;;2.65;;
59006;SDS011;44792;52.760;6.726;2023-02-28T16:37:43;2.70;;;2.50;;
59006;SDS011;44792;52.760;6.726;2023-02-28T16:40:18;3.80;;;3.00;;
59006;SDS011;44792;52.760;6.726;2023-02-28T16:42:46;3.35;;;2.95;;
59006;SDS011;44792;52.760;6.726;2023-02-28T16:45:18;2.78;;;2.55;;
59006;SDS011;44792;52.760;6.726;2023-02-28T16:47:49;3.15;;;2.65;;
59006;SDS011;44792;52.760;6.726;2023-02-28T16:50:26;3.45;;;2.85;;
59006;SDS011;44792;52.760;6.726;2023-02-28T16:52:53;3.70;;;2.60;;
59006;SDS011;44792;52.760;6.726;2023-02-28T16:55:19;4.65;;;2.75;;
59006;SDS011;44792;52.760;6.726;2023-02-28T16:57:50;6.50;;;3.63;;
59006;SDS011;44792;52.760;6.726;2023-02-28T17:00:27;5.28;;;2.75;;
59006;SDS011;44792;52.760;6.726;2023-02-28T17:02:54;6.35;;;2.85;;
59006;SDS011;44792;52.760;6.726;2023-02-28T17:05:21;6.00;;;2.92;;
59006;SDS011;44792;52.760;6.726;2023-02-28T17:07:47;7.72;;;2.38;;
59006;SDS011;44792;52.760;6.726;2023-02-28T17:10:14;2.70;;;2.42;;